sensor_id;sensor_type;location;lat;lon;timestamp;pressure;altitude;pressure_sealevel;temperature;humidity
3178;BME280;38141;42.666;23.344;2024-02-21T00:00:46;95327.59;;;6.40;100.00
3178;BME280;38141;42.666;23.344;2024-02-21T00:03:15;95318.38;;;6.41;100.00
3178;BME280;38141;42.666;23.344;2024-02-21T00:05:42;95323.19;;;6.48;100.00
3178;BME280;38141;42.666;23.344;2024-02-21T00:08:09;95319.63;;;6.44;100.00
3178;BME280;38141;42.666;23.344;2024-02-21T00:10:36;95320.75;;;6.43;100.00
3178;BME280;38141;42.666;23.344;2024-02-21T00:13:03;95323.53;;;6.46;100.00
3178;BME280;38141;42.666;23.344;2024-02-21T00:15:30;95318.00;;;6.15;100.00
3178;BME280;38141;42.666;23.344;2024-02-21T00:17:57;95319.91;;;6.27;100.00
3178;BME280;38141;42.666;23.344;2024-02-21T00:20:25;95317.38;;;6.46;100.00
3178;BME280;38141;42.666;23.344;2024-02-21T00:22:52;95327.47;;;6.49;100.00
3178;BME280;38141;42.666;23.344;2024-02-21T00:25:20;95317.97;;;6.27;100.00
3178;BME280;38141;42.666;23.344;2024-02-21T00:27:47;95319.22;;;6.30;100.00
3178;BME280;38141;42.666;23.344;2024-02-21T00:30:14;95319.44;;;6.24;100.00
3178;BME280;38141;42.666;23.344;2024-02-21T00:32:41;95317.97;;;6.39;100.00
3178;BME280;38141;42.666;23.344;2024-02-21T00:35:08;95319.44;;;6.24;100.00
3178;BME280;38141;42.666;23.344;2024-02-21T00:37:37;95318.97;;;6.22;100.00
3178;BME280;38141;42.666;23.344;2024-02-21T00:40:05;95316.94;;;6.32;100.00
3178;BME280;38141;42.666;23.344;2024-02-21T00:42:32;95308.94;;;6.19;100.00
3178;BME280;38141;42.666;23.344;2024-02-21T00:44:59;95309.63;;;6.16;100.00
3178;BME280;38141;42.666;23.344;2024-02-21T00:47:26;95302.78;;;6.07;100.00
3178;BME280;38141;42.666;23.344;2024-02-21T00:49:53;95302.66;;;6.15;100.00
3178;BME280;38141;42.666;23.344;2024-02-21T00:52:20;95308.50;;;6.17;100.00
3178;BME280;38141;42.666;23.344;2024-02-21T00:54:49;95304.94;;;6.01;100.00
3178;BME280;38141;42.666;23.344;2024-02-21T00:57:16;95307.63;;;5.89;100.00
3178;BME280;38141;42.666;23.344;2024-02-21T00:59:42;95297.00;;;5.93;100.00
3178;BME280;38141;42.666;23.344;2024-02-21T01:02:09;95304.25;;;6.04;100.00
3178;BME280;38141;42.666;23.344;2024-02-21T01:04:36;95298.44;;;6.02;100.00
3178;BME280;38141;42.666;23.344;2024-02-21T01:07:04;95288.13;;;6.04;100.00
3178;BME280;38141;42.666;23.344;2024-02-21T01:09:30;95285.34;;;6.01;100.00
3178;BME280;38141;42.666;23.344;2024-02-21T01:11:59;95279.84;;;6.09;100.00
3178;BME280;38141;42.666;23.344;2024-02-21T01:14:26;95286.31;;;6.20;100.00
3178;BME280;38141;42.666;23.344;2024-02-21T01:16:53;95283.16;;;6.31;100.00
3178;BME280;38141;42.666;23.344;2024-02-21T01:19:20;95281.91;;;6.40;100.00
3178;BME280;38141;42.666;23.344;2024-02-21T01:21:47;95268.34;;;6.37;100.00
3178;BME280;38141;42.666;23.344;2024-02-21T01:24:14;95278.97;;;6.45;100.00
3178;BME280;38141;42.666;23.344;2024-02-21T01:26:41;95274.81;;;6.48;100.00
3178;BME280;38141;42.666;23.344;2024-02-21T01:29:09;95275.50;;;6.45;100.00
3178;BME280;38141;42.666;23.344;2024-02-21T01:31:36;95275.44;;;6.29;100.00
3178;BME280;38141;42.666;23.344;2024-02-21T01:34:03;95278.31;;;6.36;100.00
3178;BME280;38141;42.666;23.344;2024-02-21T01:36:30;95275.13;;;6.18;100.00
3178;BME280;38141;42.666;23.344;2024-02-21T01:38:57;95267.88;;;6.07;100.00
3178;BME280;38141;42.666;23.344;2024-02-21T01:41:24;95278.59;;;6.19;100.00
3178;BME280;38141;42.666;23.344;2024-02-21T01:43:51;95265.63;;;6.09;100.00
3178;BME280;38141;42.666;23.344;2024-02-21T01:46:19;95260.63;;;5.95;100.00
3178;BME280;38141;42.666;23.344;2024-02-21T01:48:46;95259.28;;;6.01;100.00
3178;BME280;38141;42.666;23.344;2024-02-21T01:51:14;95262.38;;;6.15;100.00
3178;BME280;38141;42.666;23.344;2024-02-21T01:53:43;95256.13;;;6.11;100.00
3178;BME280;38141;42.666;23.344;2024-02-21T01:56:12;95253.88;;;6.13;100.00
3178;BME280;38141;42.666;23.344;2024-02-21T01:58:40;95257.56;;;6.21;100.00
3178;BME280;38141;42.666;23.344;2024-02-21T02:01:09;95250.84;;;6.15;100.00
3178;BME280;38141;42.666;23.344;2024-02-21T02:03:38;95259.13;;;6.22;100.00
3178;BME280;38141;42.666;23.344;2024-02-21T02:06:05;95253.50;;;6.27;100.00
3178;BME280;38141;42.666;23.344;2024-02-21T02:08:32;95251.22;;;6.41;100.00
3178;BME280;38141;42.666;23.344;2024-02-21T02:11:00;95258.53;;;6.29;100.00
3178;BME280;38141;42.666;23.344;2024-02-21T02:13:27;95263.47;;;6.27;100.00
3178;BME280;38141;42.666;23.344;2024-02-21T02:15:54;95251.59;;;6.28;100.00
3178;BME280;38141;42.666;23.344;2024-02-21T02:18:21;95249.91;;;6.35;100.00
3178;BME280;38141;42.666;23.344;2024-02-21T02:20:50;95253.06;;;6.25;100.00
3178;BME280;38141;42.666;23.344;2024-02-21T02:23:22;95256.31;;;6.31;100.00
3178;BME280;38141;42.666;23.344;2024-02-21T02:25:50;95242.97;;;6.34;100.00
3178;BME280;38141;42.666;23.344;2024-02-21T02:28:18;95247.31;;;6.39;100.00
3178;BME280;38141;42.666;23.344;2024-02-21T02:30:45;95251.66;;;6.43;100.00
3178;BME280;38141;42.666;23.344;2024-02-21T02:33:13;95240.53;;;6.57;100.00
3178;BME280;38141;42.666;23.344;2024-02-21T02:35:40;95233.91;;;6.54;100.00
3178;BME280;38141;42.666;23.344;2024-02-21T02:38:07;95228.03;;;6.64;100.00
3178;BME280;38141;42.666;23.344;2024-02-21T02:40:38;95221.50;;;6.50;100.00
3178;BME280;38141;42.666;23.344;2024-02-21T02:43:06;95224.28;;;6.81;100.00
3178;BME280;38141;42.666;23.344;2024-02-21T02:45:33;95231.44;;;6.61;100.00
3178;BME280;38141;42.666;23.344;2024-02-21T02:48:00;95228.28;;;6.32;100.00
3178;BME280;38141;42.666;23.344;2024-02-21T02:50:27;95233.19;;;6.42;100.00
3178;BME280;38141;42.666;23.344;2024-02-21T02:52:54;95235.09;;;6.41;100.00
3178;BME280;38141;42.666;23.344;2024-02-21T02:55:21;95242.63;;;6.36;100.00
3178;BME280;38141;42.666;23.344;2024-02-21T02:57:50;95234.41;;;6.44;100.00
3178;BME280;38141;42.666;23.344;2024-02-21T03:00:17;95241.72;;;6.59;100.00
3178;BME280;38141;42.666;23.344;2024-02-21T03:02:46;95241.31;;;6.57;100.00
3178;BME280;38141;42.666;23.344;2024-02-21T03:05:14;95244.09;;;6.61;100.00
3178;BME280;38141;42.666;23.344;2024-02-21T03:07:41;95231.59;;;6.68;100.00
3178;BME280;38141;42.666;23.344;2024-02-21T03:10:09;95245.66;;;6.78;100.00
3178;BME280;38141;42.666;23.344;2024-02-21T03:12:36;95248.81;;;6.80;100.00
3178;BME280;38141;42.666;23.344;2024-02-21T03:15:04;95250.47;;;6.84;100.00
3178;BME280;38141;42.666;23.344;2024-02-21T03:17:32;95256.09;;;6.79;100.00
3178;BME280;38141;42.666;23.344;2024-02-21T03:19:59;95250.63;;;6.76;100.00
3178;BME280;38141;42.666;23.344;2024-02-21T03:22:26;95257.31;;;6.82;100.00
3178;BME280;38141;42.666;23.344;2024-02-21T03:24:53;95255.84;;;6.84;100.00
3178;BME280;38141;42.666;23.344;2024-02-21T03:27:20;95260.59;;;6.75;100.00
3178;BME280;38141;42.666;23.344;2024-02-21T03:29:47;95253.25;;;6.60;100.00
3178;BME280;38141;42.666;23.344;2024-02-21T03:32:16;95258.00;;;6.51;100.00
3178;BME280;38141;42.666;23.344;2024-02-21T03:34:42;95268.22;;;6.45;100.00
3178;BME280;38141;42.666;23.344;2024-02-21T03:37:09;95266.22;;;6.42;100.00
3178;BME280;38141;42.666;23.344;2024-02-21T03:39:37;95267.31;;;6.53;100.00
3178;BME280;38141;42.666;23.344;2024-02-21T03:42:04;95258.09;;;6.54;100.00
3178;BME280;38141;42.666;23.344;2024-02-21T03:44:31;95266.06;;;6.51;100.00
3178;BME280;38141;42.666;23.344;2024-02-21T03:46:58;95274.69;;;6.56;100.00
3178;BME280;38141;42.666;23.344;2024-02-21T03:49:27;95274.91;;;6.79;100.00
3178;BME280;38141;42.666;23.344;2024-02-21T03:51:54;95274.66;;;6.84;100.00
3178;BME280;38141;42.666;23.344;2024-02-21T03:54:21;95275.53;;;6.88;100.00
3178;BME280;38141;42.666;23.344;2024-02-21T03:56:48;95269.72;;;6.86;100.00
3178;BME280;38141;42.666;23.344;2024-02-21T03:59:15;95270.47;;;6.99;100.00
3178;BME280;38141;42.666;23.344;2024-02-21T04:01:42;95274.09;;;7.06;100.00
3178;BME280;38141;42.666;23.344;2024-02-21T04:04:09;95270.63;;;7.06;100.00
3178;BME280;38141;42.666;23.344;2024-02-21T04:06:46;95275.22;;;7.05;100.00
3178;BME280;38141;42.666;23.344;2024-02-21T04:09:13;95273.31;;;6.90;100.00
3178;BME280;38141;42.666;23.344;2024-02-21T04:11:40;95273.19;;;6.87;100.00
3178;BME280;38141;42.666;23.344;2024-02-21T04:14:07;95269.84;;;6.90;100.00
3178;BME280;38141;42.666;23.344;2024-02-21T04:16:34;95264.69;;;6.85;100.00
3178;BME280;38141;42.666;23.344;2024-02-21T04:19:01;95277.28;;;6.81;100.00
3178;BME280;38141;42.666;23.344;2024-02-21T04:21:28;95276.03;;;6.78;100.00
3178;BME280;38141;42.666;23.344;2024-02-21T04:23:57;95273.84;;;6.68;100.00
3178;BME280;38141;42.666;23.344;2024-02-21T04:26:24;95268.47;;;6.68;100.00
3178;BME280;38141;42.666;23.344;2024-02-21T04:28:51;95270.09;;;6.57;100.00
3178;BME280;38141;42.666;23.344;2024-02-21T04:31:18;95273.97;;;6.32;100.00
3178;BME280;38141;42.666;23.344;2024-02-21T04:33:45;95281.38;;;6.35;100.00
3178;BME280;38141;42.666;23.344;2024-02-21T04:36:12;95269.00;;;6.46;100.00
3178;BME280;38141;42.666;23.344;2024-02-21T04:38:39;95271.03;;;6.37;100.00
3178;BME280;38141;42.666;23.344;2024-02-21T04:41:08;95281.03;;;6.24;100.00
3178;BME280;38141;42.666;23.344;2024-02-21T04:43:35;95280.81;;;6.29;100.00
3178;BME280;38141;42.666;23.344;2024-02-21T04:46:02;95280.81;;;6.29;100.00
3178;BME280;38141;42.666;23.344;2024-02-21T04:48:29;95273.63;;;6.33;100.00
3178;BME280;38141;42.666;23.344;2024-02-21T04:50:56;95278.56;;;6.31;100.00
3178;BME280;38141;42.666;23.344;2024-02-21T04:53:22;95267.16;;;6.34;100.00
3178;BME280;38141;42.666;23.344;2024-02-21T04:55:49;95275.94;;;6.47;100.00
3178;BME280;38141;42.666;23.344;2024-02-21T04:58:18;95267.56;;;6.36;100.00
3178;BME280;38141;42.666;23.344;2024-02-21T05:00:45;95264.19;;;6.11;100.00
3178;BME280;38141;42.666;23.344;2024-02-21T05:03:12;95258.13;;;6.14;100.00
3178;BME280;38141;42.666;23.344;2024-02-21T05:05:39;95272.44;;;6.18;100.00
3178;BME280;38141;42.666;23.344;2024-02-21T05:08:06;95271.13;;;6.12;100.00
3178;BME280;38141;42.666;23.344;2024-02-21T05:10:33;95272.88;;;6.20;100.00
3178;BME280;38141;42.666;23.344;2024-02-21T05:13:00;95275.03;;;6.15;100.00
3178;BME280;38141;42.666;23.344;2024-02-21T05:15:28;95278.19;;;5.93;100.00
3178;BME280;38141;42.666;23.344;2024-02-21T05:17:55;95287.47;;;5.95;100.00
3178;BME280;38141;42.666;23.344;2024-02-21T05:20:22;95288.13;;;6.04;100.00
3178;BME280;38141;42.666;23.344;2024-02-21T05:22:49;95282.22;;;5.87;100.00
3178;BME280;38141;42.666;23.344;2024-02-21T05:25:16;95285.47;;;5.92;100.00
3178;BME280;38141;42.666;23.344;2024-02-21T05:27:43;95286.16;;;5.89;100.00
3178;BME280;38141;42.666;23.344;2024-02-21T05:30:12;95296.19;;;6.04;100.00
3178;BME280;38141;42.666;23.344;2024-02-21T05:32:41;95293.81;;;6.15;100.00
3178;BME280;38141;42.666;23.344;2024-02-21T05:35:09;95287.34;;;6.16;100.00
3178;BME280;38141;42.666;23.344;2024-02-21T05:37:36;95292.25;;;6.26;100.00
3178;BME280;38141;42.666;23.344;2024-02-21T05:40:04;95292.91;;;6.35;100.00
3178;BME280;38141;42.666;23.344;2024-02-21T05:42:32;95291.50;;;6.41;100.00
3178;BME280;38141;42.666;23.344;2024-02-21T05:44:59;95289.44;;;6.62;100.00
3178;BME280;38141;42.666;23.344;2024-02-21T05:47:26;95288.50;;;6.70;100.00
3178;BME280;38141;42.666;23.344;2024-02-21T05:49:54;95296.56;;;6.70;100.00
3178;BME280;38141;42.666;23.344;2024-02-21T05:52:21;95287.31;;;6.56;100.00
3178;BME280;38141;42.666;23.344;2024-02-21T05:54:49;95301.94;;;6.70;100.00
3178;BME280;38141;42.666;23.344;2024-02-21T05:57:17;95299.59;;;6.69;100.00
3178;BME280;38141;42.666;23.344;2024-02-21T05:59:44;95313.13;;;6.72;100.00
3178;BME280;38141;42.666;23.344;2024-02-21T06:02:11;95304.88;;;6.93;100.00
3178;BME280;38141;42.666;23.344;2024-02-21T06:04:38;95300.28;;;6.94;100.00
3178;BME280;38141;42.666;23.344;2024-02-21T06:07:07;95304.44;;;6.91;100.00
3178;BME280;38141;42.666;23.344;2024-02-21T06:09:34;95301.06;;;6.94;100.00
3178;BME280;38141;42.666;23.344;2024-02-21T06:12:01;95302.50;;;7.20;100.00
3178;BME280;38141;42.666;23.344;2024-02-21T06:14:28;95308.50;;;7.13;100.00
3178;BME280;38141;42.666;23.344;2024-02-21T06:16:55;95314.69;;;7.45;100.00
3178;BME280;38141;42.666;23.344;2024-02-21T06:19:22;95324.91;;;7.55;100.00
3178;BME280;38141;42.666;23.344;2024-02-21T06:21:49;95318.91;;;7.77;100.00
3178;BME280;38141;42.666;23.344;2024-02-21T06:24:18;95321.72;;;7.65;100.00
3178;BME280;38141;42.666;23.344;2024-02-21T06:26:44;95326.47;;;8.03;100.00
3178;BME280;38141;42.666;23.344;2024-02-21T06:29:11;95320.09;;;8.11;100.00
3178;BME280;38141;42.666;23.344;2024-02-21T06:31:40;95327.50;;;8.30;100.00
3178;BME280;38141;42.666;23.344;2024-02-21T06:34:07;95331.56;;;8.59;100.00
3178;BME280;38141;42.666;23.344;2024-02-21T06:36:34;95318.19;;;9.23;100.00
3178;BME280;38141;42.666;23.344;2024-02-21T06:39:01;95335.38;;;9.34;100.00
3178;BME280;38141;42.666;23.344;2024-02-21T06:41:31;95324.59;;;9.34;100.00
3178;BME280;38141;42.666;23.344;2024-02-21T06:43:59;95328.34;;;9.30;100.00
3178;BME280;38141;42.666;23.344;2024-02-21T06:46:27;95343.09;;;9.36;100.00
3178;BME280;38141;42.666;23.344;2024-02-21T06:48:55;95343.25;;;9.66;100.00
3178;BME280;38141;42.666;23.344;2024-02-21T06:51:23;95348.38;;;9.71;100.00
3178;BME280;38141;42.666;23.344;2024-02-21T06:53:50;95352.25;;;9.73;100.00
3178;BME280;38141;42.666;23.344;2024-02-21T06:56:17;95347.00;;;9.80;100.00
3178;BME280;38141;42.666;23.344;2024-02-21T06:58:45;95360.88;;;9.37;100.00
3178;BME280;38141;42.666;23.344;2024-02-21T07:01:12;95357.84;;;9.84;99.73
3178;BME280;38141;42.666;23.344;2024-02-21T07:03:39;95344.63;;;10.02;98.99
3178;BME280;38141;42.666;23.344;2024-02-21T07:06:06;95343.22;;;9.85;99.38
3178;BME280;38141;42.666;23.344;2024-02-21T07:08:33;95346.22;;;9.80;99.07
3178;BME280;38141;42.666;23.344;2024-02-21T07:11:00;95347.94;;;9.69;98.12
3178;BME280;38141;42.666;23.344;2024-02-21T07:13:30;95350.53;;;9.62;99.29
3178;BME280;38141;42.666;23.344;2024-02-21T07:15:59;95345.72;;;9.52;99.47
3178;BME280;38141;42.666;23.344;2024-02-21T07:18:26;95353.22;;;9.39;100.00
3178;BME280;38141;42.666;23.344;2024-02-21T07:20:53;95351.66;;;9.61;100.00
3178;BME280;38141;42.666;23.344;2024-02-21T07:23:20;95356.81;;;9.92;97.99
3178;BME280;38141;42.666;23.344;2024-02-21T07:25:47;95357.31;;;9.75;98.16
3178;BME280;38141;42.666;23.344;2024-02-21T07:28:14;95357.81;;;9.80;98.07
3178;BME280;38141;42.666;23.344;2024-02-21T07:30:41;95356.75;;;9.43;99.61
3178;BME280;38141;42.666;23.344;2024-02-21T07:33:10;95358.16;;;9.37;100.00
3178;BME280;38141;42.666;23.344;2024-02-21T07:35:37;95358.53;;;9.35;100.00
3178;BME280;38141;42.666;23.344;2024-02-21T07:38:06;95337.84;;;9.43;100.00
3178;BME280;38141;42.666;23.344;2024-02-21T07:40:34;95357.06;;;9.83;99.73
3178;BME280;38141;42.666;23.344;2024-02-21T07:43:01;95359.53;;;9.92;97.45
3178;BME280;38141;42.666;23.344;2024-02-21T07:45:28;95349.25;;;10.01;96.97
3178;BME280;38141;42.666;23.344;2024-02-21T07:47:55;95356.03;;;9.92;97.08
3178;BME280;38141;42.666;23.344;2024-02-21T07:50:23;95360.59;;;9.42;99.29
3178;BME280;38141;42.666;23.344;2024-02-21T07:52:50;95357.81;;;9.80;99.44
3178;BME280;38141;42.666;23.344;2024-02-21T07:55:17;95355.44;;;9.79;98.90
3178;BME280;38141;42.666;23.344;2024-02-21T07:57:44;95353.75;;;9.48;98.03
3178;BME280;38141;42.666;23.344;2024-02-21T08:00:12;95350.47;;;9.58;100.00
3178;BME280;38141;42.666;23.344;2024-02-21T08:02:45;95355.50;;;9.82;97.78
3178;BME280;38141;42.666;23.344;2024-02-21T08:05:12;95353.25;;;10.11;96.37
3178;BME280;38141;42.666;23.344;2024-02-21T08:07:40;95346.97;;;10.03;95.23
3178;BME280;38141;42.666;23.344;2024-02-21T08:10:08;95341.50;;;10.00;100.00
3178;BME280;38141;42.666;23.344;2024-02-21T08:12:35;95350.84;;;10.29;99.87
3178;BME280;38141;42.666;23.344;2024-02-21T08:15:03;95349.59;;;10.22;96.06
3178;BME280;38141;42.666;23.344;2024-02-21T08:17:30;95348.00;;;10.44;94.09
3178;BME280;38141;42.666;23.344;2024-02-21T08:19:57;95346.16;;;10.22;91.67
3178;BME280;38141;42.666;23.344;2024-02-21T08:22:24;95352.63;;;10.17;92.34
3178;BME280;38141;42.666;23.344;2024-02-21T08:24:52;95346.84;;;10.45;90.47
3178;BME280;38141;42.666;23.344;2024-02-21T08:27:19;95347.03;;;11.19;86.15
3178;BME280;38141;42.666;23.344;2024-02-21T08:29:46;95347.72;;;11.49;82.42
3178;BME280;38141;42.666;23.344;2024-02-21T08:32:13;95335.31;;;12.29;72.29
3178;BME280;38141;42.666;23.344;2024-02-21T08:34:40;95346.47;;;12.79;69.52
3178;BME280;38141;42.666;23.344;2024-02-21T08:37:07;95342.06;;;12.53;70.42
3178;BME280;38141;42.666;23.344;2024-02-21T08:39:36;95346.53;;;12.31;70.77
3178;BME280;38141;42.666;23.344;2024-02-21T08:42:04;95333.84;;;13.11;65.47
3178;BME280;38141;42.666;23.344;2024-02-21T08:44:31;95345.19;;;13.38;64.99
3178;BME280;38141;42.666;23.344;2024-02-21T08:46:58;95345.50;;;13.12;65.66
3178;BME280;38141;42.666;23.344;2024-02-21T08:49:29;95347.19;;;12.72;66.70
3178;BME280;38141;42.666;23.344;2024-02-21T08:51:56;95343.19;;;13.24;64.65
3178;BME280;38141;42.666;23.344;2024-02-21T08:54:23;95347.84;;;13.20;63.06
3178;BME280;38141;42.666;23.344;2024-02-21T08:56:50;95352.94;;;13.36;62.96
3178;BME280;38141;42.666;23.344;2024-02-21T08:59:19;95345.13;;;13.27;63.24
3178;BME280;38141;42.666;23.344;2024-02-21T09:01:46;95347.97;;;13.70;63.12
3178;BME280;38141;42.666;23.344;2024-02-21T09:04:13;95349.19;;;14.29;60.29
3178;BME280;38141;42.666;23.344;2024-02-21T09:06:40;95350.72;;;14.76;58.81
3178;BME280;38141;42.666;23.344;2024-02-21T09:09:08;95351.13;;;14.57;57.88
3178;BME280;38141;42.666;23.344;2024-02-21T09:11:35;95352.31;;;14.45;59.28
3178;BME280;38141;42.666;23.344;2024-02-21T09:14:02;95360.09;;;14.25;57.57
3178;BME280;38141;42.666;23.344;2024-02-21T09:16:32;95353.84;;;13.90;58.01
3178;BME280;38141;42.666;23.344;2024-02-21T09:18:59;95354.16;;;13.56;59.95
3178;BME280;38141;42.666;23.344;2024-02-21T09:21:26;95354.63;;;13.97;58.41
3178;BME280;38141;42.666;23.344;2024-02-21T09:23:53;95348.03;;;14.30;57.96
3178;BME280;38141;42.666;23.344;2024-02-21T09:26:20;95352.66;;;14.68;56.50
3178;BME280;38141;42.666;23.344;2024-02-21T09:28:47;95353.41;;;13.73;60.04
3178;BME280;38141;42.666;23.344;2024-02-21T09:31:14;95354.53;;;13.51;60.94
3178;BME280;38141;42.666;23.344;2024-02-21T09:33:42;95351.13;;;13.90;60.26
3178;BME280;38141;42.666;23.344;2024-02-21T09:36:09;95340.13;;;13.29;60.74
3178;BME280;38141;42.666;23.344;2024-02-21T09:38:36;95343.66;;;13.55;61.62
3178;BME280;38141;42.666;23.344;2024-02-21T09:41:11;95347.97;;;13.66;61.42
3178;BME280;38141;42.666;23.344;2024-02-21T09:43:42;95350.31;;;13.75;60.87
3178;BME280;38141;42.666;23.344;2024-02-21T09:46:14;95344.88;;;13.71;60.65
3178;BME280;38141;42.666;23.344;2024-02-21T09:48:53;95339.84;;;13.91;59.37
3178;BME280;38141;42.666;23.344;2024-02-21T09:51:30;95354.25;;;14.16;58.71
3178;BME280;38141;42.666;23.344;2024-02-21T09:53:59;95349.78;;;13.27;60.27
3178;BME280;38141;42.666;23.344;2024-02-21T09:56:28;95349.97;;;14.05;59.08
3178;BME280;38141;42.666;23.344;2024-02-21T09:58:56;95330.50;;;14.31;57.80
3178;BME280;38141;42.666;23.344;2024-02-21T10:01:24;95303.31;;;14.13;57.04
3178;BME280;38141;42.666;23.344;2024-02-21T10:03:54;95293.97;;;14.36;55.08
3178;BME280;38141;42.666;23.344;2024-02-21T10:06:22;95344.06;;;13.67;57.13
3178;BME280;38141;42.666;23.344;2024-02-21T10:08:52;95320.63;;;13.13;58.07
3178;BME280;38141;42.666;23.344;2024-02-21T10:11:22;95315.34;;;13.91;57.00
3178;BME280;38141;42.666;23.344;2024-02-21T10:14:03;95330.38;;;15.09;54.17
3178;BME280;38141;42.666;23.344;2024-02-21T10:16:30;95335.53;;;14.75;53.78
3178;BME280;38141;42.666;23.344;2024-02-21T10:19:00;95323.88;;;14.75;53.52
3178;BME280;38141;42.666;23.344;2024-02-21T10:21:28;95324.69;;;14.01;54.83
3178;BME280;38141;42.666;23.344;2024-02-21T10:23:55;95332.31;;;13.21;57.17
3178;BME280;38141;42.666;23.344;2024-02-21T10:26:23;95312.16;;;13.25;56.69
3178;BME280;38141;42.666;23.344;2024-02-21T10:28:50;95322.09;;;13.00;57.26
3178;BME280;38141;42.666;23.344;2024-02-21T10:31:23;95300.03;;;13.09;56.84
3178;BME280;38141;42.666;23.344;2024-02-21T10:33:56;95290.84;;;13.34;56.39
3178;BME280;38141;42.666;23.344;2024-02-21T10:36:25;95291.84;;;12.98;55.69
3178;BME280;38141;42.666;23.344;2024-02-21T10:38:52;95258.06;;;12.96;55.77
3178;BME280;38141;42.666;23.344;2024-02-21T10:41:21;95288.53;;;14.04;53.93
3178;BME280;38141;42.666;23.344;2024-02-21T10:43:50;95283.09;;;14.36;53.37
3178;BME280;38141;42.666;23.344;2024-02-21T10:46:20;95232.81;;;14.79;52.05
3178;BME280;38141;42.666;23.344;2024-02-21T10:48:48;95277.47;;;15.76;50.91
3178;BME280;38141;42.666;23.344;2024-02-21T10:51:22;95271.81;;;15.38;51.39
3178;BME280;38141;42.666;23.344;2024-02-21T10:54:05;95269.47;;;15.40;50.02
3178;BME280;38141;42.666;23.344;2024-02-21T10:56:41;95229.59;;;14.98;50.22
3178;BME280;38141;42.666;23.344;2024-02-21T10:59:08;95253.72;;;16.14;48.56
3178;BME280;38141;42.666;23.344;2024-02-21T11:01:35;95247.66;;;16.36;48.42
3178;BME280;38141;42.666;23.344;2024-02-21T11:04:04;95252.13;;;15.72;49.38
3178;BME280;38141;42.666;23.344;2024-02-21T11:06:33;95246.69;;;16.91;47.92
3178;BME280;38141;42.666;23.344;2024-02-21T11:09:03;95230.97;;;17.56;46.61
3178;BME280;38141;42.666;23.344;2024-02-21T11:11:33;95233.72;;;17.83;44.60
3178;BME280;38141;42.666;23.344;2024-02-21T11:14:07;95232.00;;;17.39;44.78
3178;BME280;38141;42.666;23.344;2024-02-21T11:16:36;95226.25;;;17.60;44.56
3178;BME280;38141;42.666;23.344;2024-02-21T11:19:06;95221.94;;;17.32;44.77
3178;BME280;38141;42.666;23.344;2024-02-21T11:21:33;95228.41;;;16.88;43.99
3178;BME280;38141;42.666;23.344;2024-02-21T11:24:02;95228.56;;;15.95;43.64
3178;BME280;38141;42.666;23.344;2024-02-21T11:26:30;95227.16;;;15.77;44.96
3178;BME280;38141;42.666;23.344;2024-02-21T11:28:58;95239.19;;;15.83;44.09
3178;BME280;38141;42.666;23.344;2024-02-21T11:31:26;95230.03;;;16.07;44.93
3178;BME280;38141;42.666;23.344;2024-02-21T11:33:54;95215.81;;;16.23;44.90
3178;BME280;38141;42.666;23.344;2024-02-21T11:36:27;95222.81;;;15.83;45.49
3178;BME280;38141;42.666;23.344;2024-02-21T11:38:54;95221.50;;;15.46;45.72
3178;BME280;38141;42.666;23.344;2024-02-21T11:41:22;95223.41;;;14.87;46.78
3178;BME280;38141;42.666;23.344;2024-02-21T11:43:49;95226.97;;;14.77;46.87
3178;BME280;38141;42.666;23.344;2024-02-21T11:46:17;95215.44;;;14.38;47.51
3178;BME280;38141;42.666;23.344;2024-02-21T11:48:45;95217.16;;;14.90;46.76
3178;BME280;38141;42.666;23.344;2024-02-21T11:51:21;95216.03;;;14.84;47.23
3178;BME280;38141;42.666;23.344;2024-02-21T11:53:50;95205.72;;;15.20;46.89
3178;BME280;38141;42.666;23.344;2024-02-21T11:56:18;95202.84;;;14.79;47.20
3178;BME280;38141;42.666;23.344;2024-02-21T11:58:47;95212.78;;;13.95;48.54
3178;BME280;38141;42.666;23.344;2024-02-21T12:01:14;95200.38;;;13.62;48.81
3178;BME280;38141;42.666;23.344;2024-02-21T12:03:43;95197.63;;;13.27;49.40
3178;BME280;38141;42.666;23.344;2024-02-21T12:06:16;95206.97;;;13.68;49.68
3178;BME280;38141;42.666;23.344;2024-02-21T12:08:47;95202.66;;;13.18;50.16
3178;BME280;38141;42.666;23.344;2024-02-21T12:11:19;95181.22;;;12.67;51.34
3178;BME280;38141;42.666;23.344;2024-02-21T12:13:58;95197.97;;;13.01;51.70
3178;BME280;38141;42.666;23.344;2024-02-21T12:16:27;95195.66;;;13.10;51.04
3178;BME280;38141;42.666;23.344;2024-02-21T12:18:54;95197.97;;;13.04;50.58
3178;BME280;38141;42.666;23.344;2024-02-21T12:21:24;95190.03;;;12.46;52.37
3178;BME280;38141;42.666;23.344;2024-02-21T12:23:51;95187.78;;;12.73;52.40
3178;BME280;38141;42.666;23.344;2024-02-21T12:26:18;95177.75;;;12.84;52.70
3178;BME280;38141;42.666;23.344;2024-02-21T12:28:45;95180.75;;;12.54;53.65
3178;BME280;38141;42.666;23.344;2024-02-21T12:31:13;95184.50;;;12.21;54.55
3178;BME280;38141;42.666;23.344;2024-02-21T12:33:42;95179.03;;;12.11;55.03
3178;BME280;38141;42.666;23.344;2024-02-21T12:36:09;95178.66;;;12.12;53.96
3178;BME280;38141;42.666;23.344;2024-02-21T12:38:36;95183.63;;;12.03;54.46
3178;BME280;38141;42.666;23.344;2024-02-21T12:41:03;95177.78;;;11.97;54.93
3178;BME280;38141;42.666;23.344;2024-02-21T12:43:30;95175.03;;;11.90;54.59
3178;BME280;38141;42.666;23.344;2024-02-21T12:45:57;95174.13;;;11.72;55.34
3178;BME280;38141;42.666;23.344;2024-02-21T12:48:26;95177.72;;;11.90;55.45
3178;BME280;38141;42.666;23.344;2024-02-21T12:50:53;95174.38;;;12.15;54.82
3178;BME280;38141;42.666;23.344;2024-02-21T12:53:20;95166.53;;;11.95;55.45
3178;BME280;38141;42.666;23.344;2024-02-21T12:55:48;95165.28;;;11.75;55.32
3178;BME280;38141;42.666;23.344;2024-02-21T12:58:16;95162.47;;;11.68;55.30
3178;BME280;38141;42.666;23.344;2024-02-21T13:00:43;95167.31;;;11.41;56.39
3178;BME280;38141;42.666;23.344;2024-02-21T13:03:10;95164.13;;;11.29;57.15